sensor_id;sensor_type;location;lat;lon;timestamp;pressure;altitude;pressure_sealevel;temperature;humidity
44481;BME280;30184;42.018;23.670;2023-04-01T00:01:53;90859.66;;;4.82;71.33
44481;BME280;30184;42.018;23.670;2023-04-01T00:04:23;90920.09;;;4.98;71.36
44481;BME280;30184;42.018;23.670;2023-04-01T00:06:53;90887.81;;;4.98;71.47
44481;BME280;30184;42.018;23.670;2023-04-01T00:09:24;90874.78;;;4.96;72.09
44481;BME280;30184;42.018;23.670;2023-04-01T00:11:53;90810.19;;;4.57;71.93
44481;BME280;30184;42.018;23.670;2023-04-01T00:14:23;90869.41;;;4.96;72.56
44481;BME280;30184;42.018;23.670;2023-04-01T00:16:53;90877.06;;;4.98;72.49
44481;BME280;30184;42.018;23.670;2023-04-01T00:19:23;90877.75;;;5.02;72.28
44481;BME280;30184;42.018;23.670;2023-04-01T00:21:52;90883.06;;;5.05;72.04
44481;BME280;30184;42.018;23.670;2023-04-01T00:24:24;90877.63;;;5.09;71.08
44481;BME280;30184;42.018;23.670;2023-04-01T00:26:53;90865.41;;;5.04;71.11
44481;BME280;30184;42.018;23.670;2023-04-01T00:29:23;90876.75;;;5.15;70.90
44481;BME280;30184;42.018;23.670;2023-04-01T00:31:57;90867.50;;;5.16;70.57
44481;BME280;30184;42.018;23.670;2023-04-01T00:34:26;90879.78;;;5.17;70.80
44481;BME280;30184;42.018;23.670;2023-04-01T00:36:56;90864.31;;;5.21;70.92
44481;BME280;30184;42.018;23.670;2023-04-01T00:39:30;90624.34;;;3.56;71.16
44481;BME280;30184;42.018;23.670;2023-04-01T00:42:01;90872.34;;;5.25;71.14
44481;BME280;30184;42.018;23.670;2023-04-01T00:44:33;90873.03;;;5.29;70.52
44481;BME280;30184;42.018;23.670;2023-04-01T00:47:04;90860.13;;;5.20;70.57
44481;BME280;30184;42.018;23.670;2023-04-01T00:49:37;90865.66;;;5.33;70.49
44481;BME280;30184;42.018;23.670;2023-04-01T00:52:11;90851.09;;;5.31;70.69
44481;BME280;30184;42.018;23.670;2023-04-01T00:54:46;90855.31;;;5.32;70.78
44481;BME280;30184;42.018;23.670;2023-04-01T00:57:20;90800.72;;;4.92;71.44
44481;BME280;30184;42.018;23.670;2023-04-01T00:59:54;90834.69;;;5.25;71.78
44481;BME280;30184;42.018;23.670;2023-04-01T01:02:24;90771.50;;;4.74;71.67
44481;BME280;30184;42.018;23.670;2023-04-01T01:04:54;90852.81;;;5.21;71.28
44481;BME280;30184;42.018;23.670;2023-04-01T01:07:28;90844.41;;;5.19;71.41
44481;BME280;30184;42.018;23.670;2023-04-01T01:10:06;90774.88;;;4.78;71.27
44481;BME280;30184;42.018;23.670;2023-04-01T01:12:43;90836.06;;;5.13;71.52
44481;BME280;30184;42.018;23.670;2023-04-01T01:15:20;90854.59;;;5.08;72.62
44481;BME280;30184;42.018;23.670;2023-04-01T01:17:56;90842.34;;;5.07;72.80
44481;BME280;30184;42.018;23.670;2023-04-01T01:20:52;90833.53;;;4.83;72.41
44481;BME280;30184;42.018;23.670;2023-04-01T01:23:59;90848.13;;;5.05;72.34
44481;BME280;30184;42.018;23.670;2023-04-01T01:26:45;90833.56;;;5.03;72.30
44481;BME280;30184;42.018;23.670;2023-04-01T01:29:33;90836.66;;;5.01;72.25
44481;BME280;30184;42.018;23.670;2023-04-01T01:32:08;90739.97;;;4.11;72.62
44481;BME280;30184;42.018;23.670;2023-04-01T01:34:47;90829.44;;;4.98;73.10
44481;BME280;30184;42.018;23.670;2023-04-01T01:37:26;90828.66;;;4.98;73.32
44481;BME280;30184;42.018;23.670;2023-04-01T01:39:58;90809.84;;;4.98;73.18
44481;BME280;30184;42.018;23.670;2023-04-01T01:42:35;90809.16;;;4.94;73.40
44481;BME280;30184;42.018;23.670;2023-04-01T01:45:08;90813.44;;;4.91;73.47
44481;BME280;30184;42.018;23.670;2023-04-01T01:47:40;90809.19;;;4.70;73.69
44481;BME280;30184;42.018;23.670;2023-04-01T01:50:12;90842.31;;;4.87;73.77
44481;BME280;30184;42.018;23.670;2023-04-01T01:52:44;90834.28;;;4.83;74.07
44481;BME280;30184;42.018;23.670;2023-04-01T01:55:26;90833.13;;;4.84;74.15
44481;BME280;30184;42.018;23.670;2023-04-01T01:57:59;90766.34;;;4.40;74.24
44481;BME280;30184;42.018;23.670;2023-04-01T02:00:32;90769.78;;;4.40;74.22
44481;BME280;30184;42.018;23.670;2023-04-01T02:03:04;90774.34;;;4.43;74.21
44481;BME280;30184;42.018;23.670;2023-04-01T02:05:34;90819.75;;;4.81;74.13
44481;BME280;30184;42.018;23.670;2023-04-01T02:08:12;90825.53;;;4.79;74.20
44481;BME280;30184;42.018;23.670;2023-04-01T02:10:49;90824.84;;;4.75;74.65
44481;BME280;30184;42.018;23.670;2023-04-01T02:13:27;90858.97;;;4.78;74.40
44481;BME280;30184;42.018;23.670;2023-04-01T02:16:02;90835.13;;;4.80;74.57
44481;BME280;30184;42.018;23.670;2023-04-01T02:18:36;90817.88;;;4.78;74.64
44481;BME280;30184;42.018;23.670;2023-04-01T02:21:07;90841.31;;;4.77;74.54
44481;BME280;30184;42.018;23.670;2023-04-01T02:23:40;90727.19;;;4.19;74.85
44481;BME280;30184;42.018;23.670;2023-04-01T02:26:12;90803.47;;;4.68;74.80
44481;BME280;30184;42.018;23.670;2023-04-01T02:28:46;90830.81;;;4.63;74.58
44481;BME280;30184;42.018;23.670;2023-04-01T02:31:18;90804.06;;;4.56;74.27
44481;BME280;30184;42.018;23.670;2023-04-01T02:33:48;90728.72;;;3.97;74.54
44481;BME280;30184;42.018;23.670;2023-04-01T02:36:18;90795.13;;;4.39;74.89
44481;BME280;30184;42.018;23.670;2023-04-01T02:38:50;90798.19;;;4.41;74.77
44481;BME280;30184;42.018;23.670;2023-04-01T02:41:22;90796.59;;;4.44;74.96
44481;BME280;30184;42.018;23.670;2023-04-01T02:43:51;90832.34;;;4.41;75.21
44481;BME280;30184;42.018;23.670;2023-04-01T02:46:21;90762.41;;;4.25;75.46
44481;BME280;30184;42.018;23.670;2023-04-01T02:48:50;90769.63;;;4.28;75.47
44481;BME280;30184;42.018;23.670;2023-04-01T02:51:21;90782.22;;;4.31;75.77
44481;BME280;30184;42.018;23.670;2023-04-01T02:53:52;90773.06;;;4.28;76.02
44481;BME280;30184;42.018;23.670;2023-04-01T02:56:22;90765.53;;;4.20;76.02
44481;BME280;30184;42.018;23.670;2023-04-01T02:58:52;90790.19;;;4.15;76.21
44481;BME280;30184;42.018;23.670;2023-04-01T03:01:21;90774.75;;;4.19;76.26
44481;BME280;30184;42.018;23.670;2023-04-01T03:03:51;90774.44;;;4.17;76.19
44481;BME280;30184;42.018;23.670;2023-04-01T03:06:21;90796.72;;;4.13;76.28
44481;BME280;30184;42.018;23.670;2023-04-01T03:08:52;90813.69;;;4.07;76.24
44481;BME280;30184;42.018;23.670;2023-04-01T03:11:22;90794.81;;;3.87;76.43
44481;BME280;30184;42.018;23.670;2023-04-01T03:13:51;90782.25;;;4.07;76.55
44481;BME280;30184;42.018;23.670;2023-04-01T03:16:21;90794.16;;;4.06;76.81
44481;BME280;30184;42.018;23.670;2023-04-01T03:18:51;90811.78;;;4.07;76.82
44481;BME280;30184;42.018;23.670;2023-04-01T03:21:23;90794.53;;;4.05;77.13
44481;BME280;30184;42.018;23.670;2023-04-01T03:23:54;90782.66;;;4.06;77.18
44481;BME280;30184;42.018;23.670;2023-04-01T03:26:23;90772.66;;;4.06;77.41
44481;BME280;30184;42.018;23.670;2023-04-01T03:28:54;90767.31;;;4.06;77.76
44481;BME280;30184;42.018;23.670;2023-04-01T03:31:24;90761.69;;;3.97;77.72
44481;BME280;30184;42.018;23.670;2023-04-01T03:33:56;90719.44;;;3.78;77.66
44481;BME280;30184;42.018;23.670;2023-04-01T03:36:27;90761.09;;;4.09;77.80
44481;BME280;30184;42.018;23.670;2023-04-01T03:38:58;90767.59;;;4.12;77.50
44481;BME280;30184;42.018;23.670;2023-04-01T03:41:37;90746.91;;;3.86;77.10
44481;BME280;30184;42.018;23.670;2023-04-01T03:44:07;90745.63;;;3.94;76.68
44481;BME280;30184;42.018;23.670;2023-04-01T03:46:36;90757.97;;;4.15;76.79
44481;BME280;30184;42.018;23.670;2023-04-01T03:49:06;90670.75;;;3.53;76.90
44481;BME280;30184;42.018;23.670;2023-04-01T03:51:40;90761.81;;;4.13;76.75
44481;BME280;30184;42.018;23.670;2023-04-01T03:54:11;90760.34;;;4.09;76.83
44481;BME280;30184;42.018;23.670;2023-04-01T03:56:41;90750.34;;;4.09;76.95
44481;BME280;30184;42.018;23.670;2023-04-01T03:59:11;90680.63;;;3.59;76.78
44481;BME280;30184;42.018;23.670;2023-04-01T04:01:42;90743.06;;;4.10;77.03
44481;BME280;30184;42.018;23.670;2023-04-01T04:04:12;90750.34;;;4.09;77.13
44481;BME280;30184;42.018;23.670;2023-04-01T04:06:42;90750.34;;;4.09;77.05
44481;BME280;30184;42.018;23.670;2023-04-01T04:09:13;90740.38;;;4.10;77.26
44481;BME280;30184;42.018;23.670;2023-04-01T04:11:43;90736.59;;;4.07;77.61
44481;BME280;30184;42.018;23.670;2023-04-01T04:14:13;90684.19;;;3.76;77.94
44481;BME280;30184;42.018;23.670;2023-04-01T04:16:43;90745.00;;;4.09;77.80
44481;BME280;30184;42.018;23.670;2023-04-01T04:19:13;90699.72;;;3.88;77.62
44481;BME280;30184;42.018;23.670;2023-04-01T04:21:43;90700.41;;;3.92;77.72
44481;BME280;30184;42.018;23.670;2023-04-01T04:24:15;90731.47;;;4.17;77.64
44481;BME280;30184;42.018;23.670;2023-04-01T04:27:05;90723.41;;;4.17;77.45
44481;BME280;30184;42.018;23.670;2023-04-01T04:29:41;90731.75;;;4.22;77.40
44481;BME280;30184;42.018;23.670;2023-04-01T04:32:11;90717.06;;;4.27;77.26
44481;BME280;30184;42.018;23.670;2023-04-01T04:34:41;90715.91;;;4.28;77.14
44481;BME280;30184;42.018;23.670;2023-04-01T04:37:10;90712.41;;;4.31;77.04
44481;BME280;30184;42.018;23.670;2023-04-01T04:39:41;90708.91;;;4.34;76.98
44481;BME280;30184;42.018;23.670;2023-04-01T04:42:11;90705.81;;;4.35;77.04
44481;BME280;30184;42.018;23.670;2023-04-01T04:44:41;90695.91;;;4.32;76.90
44481;BME280;30184;42.018;23.670;2023-04-01T04:47:11;90698.38;;;4.43;76.87
44481;BME280;30184;42.018;23.670;2023-04-01T04:49:40;90574.50;;;3.58;76.79
44481;BME280;30184;42.018;23.670;2023-04-01T04:52:10;90738.53;;;4.50;76.94
44481;BME280;30184;42.018;23.670;2023-04-01T04:54:41;90693.63;;;4.50;77.15
44481;BME280;30184;42.018;23.670;2023-04-01T04:57:11;90628.53;;;4.03;77.08
44481;BME280;30184;42.018;23.670;2023-04-01T04:59:47;90669.09;;;4.48;77.20
44481;BME280;30184;42.018;23.670;2023-04-01T05:02:25;90718.38;;;4.62;76.97
44481;BME280;30184;42.018;23.670;2023-04-01T05:04:54;90693.34;;;4.65;76.90
44481;BME280;30184;42.018;23.670;2023-04-01T05:07:24;90642.19;;;4.32;76.62
44481;BME280;30184;42.018;23.670;2023-04-01T05:09:57;90686.25;;;4.74;76.35
44481;BME280;30184;42.018;23.670;2023-04-01T05:12:28;90713.75;;;4.82;76.04
44481;BME280;30184;42.018;23.670;2023-04-01T05:15:01;90680.97;;;4.91;75.90
44481;BME280;30184;42.018;23.670;2023-04-01T05:17:31;90651.50;;;4.83;75.46
44481;BME280;30184;42.018;23.670;2023-04-01T05:20:03;90679.06;;;5.07;74.97
44481;BME280;30184;42.018;23.670;2023-04-01T05:22:33;90583.09;;;4.52;74.80
44481;BME280;30184;42.018;23.670;2023-04-01T05:25:05;90636.88;;;5.04;74.46
44481;BME280;30184;42.018;23.670;2023-04-01T05:27:35;90671.91;;;5.37;74.19
44481;BME280;30184;42.018;23.670;2023-04-01T05:30:06;90662.56;;;5.41;73.84
44481;BME280;30184;42.018;23.670;2023-04-01T05:32:57;90691.69;;;5.46;73.60
44481;BME280;30184;42.018;23.670;2023-04-01T05:35:28;90642.81;;;5.48;73.57
44481;BME280;30184;42.018;23.670;2023-04-01T05:37:58;90568.91;;;5.04;73.32
44481;BME280;30184;42.018;23.670;2023-04-01T05:40:30;90636.59;;;5.51;73.57
44481;BME280;30184;42.018;23.670;2023-04-01T05:43:00;90676.88;;;5.54;73.76
44481;BME280;30184;42.018;23.670;2023-04-01T05:45:29;90636.09;;;5.56;73.68
44481;BME280;30184;42.018;23.670;2023-04-01T05:48:11;90640.28;;;5.57;73.46
44481;BME280;30184;42.018;23.670;2023-04-01T05:50:41;90637.59;;;5.57;73.53
44481;BME280;30184;42.018;23.670;2023-04-01T05:53:11;90636.09;;;5.56;73.36
44481;BME280;30184;42.018;23.670;2023-04-01T05:55:45;90635.34;;;5.55;73.45
44481;BME280;30184;42.018;23.670;2023-04-01T05:58:14;90626.25;;;5.66;73.62
44481;BME280;30184;42.018;23.670;2023-04-01T06:00:46;90655.19;;;5.78;73.42
44481;BME280;30184;42.018;23.670;2023-04-01T06:03:20;90634.09;;;5.92;73.29
44481;BME280;30184;42.018;23.670;2023-04-01T06:05:50;90598.34;;;5.92;72.66
44481;BME280;30184;42.018;23.670;2023-04-01T06:08:19;90623.16;;;6.28;71.93
44481;BME280;30184;42.018;23.670;2023-04-01T06:14:00;90621.72;;;6.53;70.29
44481;BME280;30184;42.018;23.670;2023-04-01T06:16:47;90607.16;;;6.92;69.60
44481;BME280;30184;42.018;23.670;2023-04-01T06:19:29;90601.16;;;7.13;68.86
44481;BME280;30184;42.018;23.670;2023-04-01T06:22:27;90591.63;;;7.34;68.47
44481;BME280;30184;42.018;23.670;2023-04-01T06:25:14;90581.81;;;7.53;67.85
44481;BME280;30184;42.018;23.670;2023-04-01T06:30:44;90573.59;;;8.03;66.31
44481;BME280;30184;42.018;23.670;2023-04-01T06:33:42;90565.72;;;8.31;65.49
44481;BME280;30184;42.018;23.670;2023-04-01T06:36:34;90573.94;;;8.62;63.72
44481;BME280;30184;42.018;23.670;2023-04-01T06:39:25;90562.69;;;8.94;63.80
44481;BME280;30184;42.018;23.670;2023-04-01T06:42:07;90614.31;;;9.30;63.02
44481;BME280;30184;42.018;23.670;2023-04-01T06:44:48;90524.19;;;9.70;60.57
44481;BME280;30184;42.018;23.670;2023-04-01T06:47:56;90524.97;;;10.07;59.46
44481;BME280;30184;42.018;23.670;2023-04-01T06:50:53;90520.03;;;10.33;57.37
44481;BME280;30184;42.018;23.670;2023-04-01T06:53:47;90382.88;;;9.53;56.95
44481;BME280;30184;42.018;23.670;2023-04-01T06:56:42;90519.09;;;10.72;56.24
44481;BME280;30184;42.018;23.670;2023-04-01T06:59:24;90512.06;;;11.08;55.06
44481;BME280;30184;42.018;23.670;2023-04-01T07:01:57;90412.66;;;10.77;55.37
44481;BME280;30184;42.018;23.670;2023-04-01T07:04:31;90506.47;;;11.77;54.31
44481;BME280;30184;42.018;23.670;2023-04-01T07:07:04;90509.31;;;11.83;52.86
44481;BME280;30184;42.018;23.670;2023-04-01T07:09:43;90457.34;;;11.90;52.06
44481;BME280;30184;42.018;23.670;2023-04-01T07:12:38;90497.59;;;12.39;51.24
44481;BME280;30184;42.018;23.670;2023-04-01T07:15:30;90496.41;;;12.55;51.00
44481;BME280;30184;42.018;23.670;2023-04-01T07:18:10;90480.16;;;12.60;50.33
44481;BME280;30184;42.018;23.670;2023-04-01T07:20:44;90508.34;;;12.72;50.20
44481;BME280;30184;42.018;23.670;2023-04-01T07:23:21;90522.16;;;12.83;49.61
44481;BME280;30184;42.018;23.670;2023-04-01T07:26:17;90469.13;;;12.93;49.44
44481;BME280;30184;42.018;23.670;2023-04-01T07:29:13;90454.09;;;12.83;49.28
44481;BME280;30184;42.018;23.670;2023-04-01T07:32:09;90472.38;;;13.12;49.58
44481;BME280;30184;42.018;23.670;2023-04-01T07:34:50;90467.50;;;13.31;49.72
44481;BME280;30184;42.018;23.670;2023-04-01T07:37:27;90472.72;;;13.49;48.89
44481;BME280;30184;42.018;23.670;2023-04-01T07:40:07;90466.72;;;13.45;49.46
44481;BME280;30184;42.018;23.670;2023-04-01T07:42:50;90477.94;;;13.18;50.29
44481;BME280;30184;42.018;23.670;2023-04-01T07:45:26;90437.63;;;13.07;50.39
44481;BME280;30184;42.018;23.670;2023-04-01T07:48:08;90453.44;;;13.18;50.48
44481;BME280;30184;42.018;23.670;2023-04-01T07:50:46;90436.72;;;13.25;50.02
44481;BME280;30184;42.018;23.670;2023-04-01T07:53:25;90428.94;;;13.53;49.41
44481;BME280;30184;42.018;23.670;2023-04-01T07:56:02;90424.03;;;13.77;49.58
44481;BME280;30184;42.018;23.670;2023-04-01T07:58:46;90427.84;;;13.85;48.47
44481;BME280;30184;42.018;23.670;2023-04-01T08:01:41;90423.09;;;13.80;48.37
44481;BME280;30184;42.018;23.670;2023-04-01T08:04:23;90401.31;;;13.45;48.29
44481;BME280;30184;42.018;23.670;2023-04-01T08:06:59;90423.41;;;13.67;48.75
44481;BME280;30184;42.018;23.670;2023-04-01T08:09:40;90446.78;;;13.74;48.59
44481;BME280;30184;42.018;23.670;2023-04-01T08:12:40;90397.66;;;13.68;49.11
44481;BME280;30184;42.018;23.670;2023-04-01T08:15:35;90418.53;;;13.71;48.57
44481;BME280;30184;42.018;23.670;2023-04-01T08:18:20;90393.56;;;13.78;48.55
44481;BME280;30184;42.018;23.670;2023-04-01T08:20:55;90388.66;;;13.82;49.21
44481;BME280;30184;42.018;23.670;2023-04-01T08:23:28;90398.63;;;13.86;48.52
44481;BME280;30184;42.018;23.670;2023-04-01T08:26:05;90402.00;;;14.01;49.17
44481;BME280;30184;42.018;23.670;2023-04-01T08:28:43;90387.16;;;14.02;48.13
44481;BME280;30184;42.018;23.670;2023-04-01T08:31:17;90395.41;;;14.07;48.47
44481;BME280;30184;42.018;23.670;2023-04-01T08:33:49;90396.53;;;14.21;48.21
44481;BME280;30184;42.018;23.670;2023-04-01T08:36:26;90381.06;;;14.38;47.41
44481;BME280;30184;42.018;23.670;2023-04-01T08:39:12;90388.50;;;14.58;47.79
44481;BME280;30184;42.018;23.670;2023-04-01T08:45:42;90356.97;;;14.88;46.47
44481;BME280;30184;42.018;23.670;2023-04-01T08:48:37;90360.47;;;14.89;46.62
44481;BME280;30184;42.018;23.670;2023-04-01T08:51:44;90359.19;;;14.84;46.71
44481;BME280;30184;42.018;23.670;2023-04-01T08:57:21;90357.25;;;14.59;46.74
44481;BME280;30184;42.018;23.670;2023-04-01T09:00:30;90351.03;;;14.59;46.77
44481;BME280;30184;42.018;23.670;2023-04-01T09:03:37;90314.97;;;14.49;47.31
44481;BME280;30184;42.018;23.670;2023-04-01T09:06:29;90343.44;;;15.05;46.79
44481;BME280;30184;42.018;23.670;2023-04-01T09:09:15;90343.28;;;14.83;45.97
44481;BME280;30184;42.018;23.670;2023-04-01T09:12:18;90318.84;;;15.05;45.56
44481;BME280;30184;42.018;23.670;2023-04-01T09:21:21;90321.84;;;15.50;45.45
44481;BME280;30184;42.018;23.670;2023-04-01T09:24:20;90329.16;;;15.70;44.80
44481;BME280;30184;42.018;23.670;2023-04-01T09:27:04;90322.47;;;15.76;44.57
44481;BME280;30184;42.018;23.670;2023-04-01T09:33:11;90280.41;;;15.57;44.62
44481;BME280;30184;42.018;23.670;2023-04-01T09:35:51;90306.09;;;15.82;44.29
44481;BME280;30184;42.018;23.670;2023-04-01T09:38:30;90300.91;;;15.95;44.25
44481;BME280;30184;42.018;23.670;2023-04-01T09:41:17;90292.72;;;16.06;44.23
44481;BME280;30184;42.018;23.670;2023-04-01T09:44:03;90143.53;;;15.01;43.83
44481;BME280;30184;42.018;23.670;2023-04-01T09:47:00;90264.59;;;15.94;43.95
44481;BME280;30184;42.018;23.670;2023-04-01T09:50:06;90287.75;;;16.04;43.74
44481;BME280;30184;42.018;23.670;2023-04-01T09:52:49;90259.16;;;16.22;43.83
44481;BME280;30184;42.018;23.670;2023-04-01T09:55:58;90241.25;;;16.32;43.32
44481;BME280;30184;42.018;23.670;2023-04-01T09:58:58;90222.84;;;16.50;43.57
44481;BME280;30184;42.018;23.670;2023-04-01T10:02:14;90224.88;;;16.66;43.07
44481;BME280;30184;42.018;23.670;2023-04-01T10:08:19;90209.41;;;16.74;42.68
44481;BME280;30184;42.018;23.670;2023-04-01T10:11:35;90202.91;;;16.88;42.55
44481;BME280;30184;42.018;23.670;2023-04-01T10:14:32;90189.94;;;16.89;42.69
44481;BME280;30184;42.018;23.670;2023-04-01T10:17:28;90178.69;;;17.09;41.85
44481;BME280;30184;42.018;23.670;2023-04-01T10:20:08;90147.78;;;17.14;42.07
44481;BME280;30184;42.018;23.670;2023-04-01T10:23:04;90102.31;;;16.83;41.76
44481;BME280;30184;42.018;23.670;2023-04-01T10:26:08;90154.34;;;17.46;41.29
44481;BME280;30184;42.018;23.670;2023-04-01T10:29:21;90171.13;;;17.84;40.09
44481;BME280;30184;42.018;23.670;2023-04-01T10:32:25;90177.75;;;18.00;39.64
44481;BME280;30184;42.018;23.670;2023-04-01T10:35:20;90157.66;;;18.21;39.29
44481;BME280;30184;42.018;23.670;2023-04-01T10:41:35;90144.81;;;18.65;38.12
44481;BME280;30184;42.018;23.670;2023-04-01T10:48:21;90124.34;;;18.90;37.30
44481;BME280;30184;42.018;23.670;2023-04-01T10:51:13;90104.53;;;18.97;37.86
44481;BME280;30184;42.018;23.670;2023-04-01T10:57:30;90119.91;;;19.06;37.04
44481;BME280;30184;42.018;23.670;2023-04-01T11:00:37;90082.53;;;18.73;37.55
44481;BME280;30184;42.018;23.670;2023-04-01T11:07:24;90109.06;;;18.71;37.47
44481;BME280;30184;42.018;23.670;2023-04-01T11:10:30;90113.91;;;18.59;37.22
44481;BME280;30184;42.018;23.670;2023-04-01T11:13:45;90099.06;;;18.43;37.81
44481;BME280;30184;42.018;23.670;2023-04-01T11:16:52;90093.09;;;18.39;37.60
44481;BME280;30184;42.018;23.670;2023-04-01T11:19:56;90059.13;;;17.88;38.36
44481;BME280;30184;42.018;23.670;2023-04-01T11:22:41;90114.63;;;18.05;38.09
44481;BME280;30184;42.018;23.670;2023-04-01T11:25:36;90103.97;;;17.96;38.14
44481;BME280;30184;42.018;23.670;2023-04-01T11:28:43;90067.41;;;17.36;39.08
44481;BME280;30184;42.018;23.670;2023-04-01T11:31:39;90121.63;;;17.60;39.61
44481;BME280;30184;42.018;23.670;2023-04-01T11:34:43;90097.69;;;17.60;39.84
44481;BME280;30184;42.018;23.670;2023-04-01T11:37:28;90093.28;;;17.46;39.95
44481;BME280;30184;42.018;23.670;2023-04-01T11:40:25;90101.09;;;17.31;39.94
44481;BME280;30184;42.018;23.670;2023-04-01T11:43:24;90093.19;;;17.16;40.32
44481;BME280;30184;42.018;23.670;2023-04-01T11:46:23;90091.25;;;17.05;40.94
44481;BME280;30184;42.018;23.670;2023-04-01T11:49:05;90088.28;;;16.98;40.92
44481;BME280;30184;42.018;23.670;2023-04-01T11:52:02;90077.63;;;16.89;41.49
44481;BME280;30184;42.018;23.670;2023-04-01T11:54:56;90066.66;;;16.94;41.12
44481;BME280;30184;42.018;23.670;2023-04-01T12:01:08;90051.56;;;17.17;40.97
44481;BME280;30184;42.018;23.670;2023-04-01T12:06:50;90035.25;;;17.36;40.44
44481;BME280;30184;42.018;23.670;2023-04-01T12:09:28;90024.47;;;17.49;41.10
44481;BME280;30184;42.018;23.670;2023-04-01T12:12:11;90021.38;;;17.64;40.68
44481;BME280;30184;42.018;23.670;2023-04-01T12:14:53;89999.94;;;17.63;40.03
44481;BME280;30184;42.018;23.670;2023-04-01T12:17:34;90046.22;;;17.77;39.85
44481;BME280;30184;42.018;23.670;2023-04-01T12:20:41;90018.06;;;17.71;39.44
44481;BME280;30184;42.018;23.670;2023-04-01T12:23:22;90039.06;;;17.69;40.00
44481;BME280;30184;42.018;23.670;2023-04-01T12:26:23;89938.09;;;16.96;39.53
44481;BME280;30184;42.018;23.670;2023-04-01T12:29:25;90023.13;;;17.26;39.62
44481;BME280;30184;42.018;23.670;2023-04-01T12:32:17;89922.91;;;16.54;40.75
44481;BME280;30184;42.018;23.670;2023-04-01T12:35:00;90051.13;;;17.08;41.33
44481;BME280;30184;42.018;23.670;2023-04-01T12:37:39;90040.72;;;17.01;42.70
44481;BME280;30184;42.018;23.670;2023-04-01T12:40:24;89987.16;;;16.42;42.37
44481;BME280;30184;42.018;23.670;2023-04-01T12:43:14;90057.53;;;16.75;42.88
44481;BME280;30184;42.018;23.670;2023-04-01T12:45:55;89969.69;;;15.76;43.75
44481;BME280;30184;42.018;23.670;2023-04-01T12:48:51;90108.63;;;16.22;45.38
44481;BME280;30184;42.018;23.670;2023-04-01T12:51:52;90075.84;;;16.11;44.45
44481;BME280;30184;42.018;23.670;2023-04-01T12:54:47;90024.84;;;15.41;45.88
44481;BME280;30184;42.018;23.670;2023-04-01T12:57:36;90092.25;;;15.61;47.04
44481;BME280;30184;42.018;23.670;2023-04-01T13:00:34;90084.41;;;15.04;46.40
44481;BME280;30184;42.018;23.670;2023-04-01T13:03:25;90132.38;;;15.10;47.46
44481;BME280;30184;42.018;23.670;2023-04-01T13:09:40;90116.34;;;14.33;52.29
44481;BME280;30184;42.018;23.670;2023-04-01T13:12:32;90022.56;;;12.88;52.70
44481;BME280;30184;42.018;23.670;2023-04-01T13:15:32;90206.50;;;14.44;59.00
44481;BME280;30184;42.018;23.670;2023-04-01T13:18:38;90095.78;;;13.63;59.66
44481;BME280;30184;42.018;23.670;2023-04-01T13:21:16;90045.06;;;12.88;59.95
44481;BME280;30184;42.018;23.670;2023-04-01T13:23:58;90179.38;;;14.03;59.55
44481;BME280;30184;42.018;23.670;2023-04-01T13:32:54;90225.53;;;13.81;62.23
44481;BME280;30184;42.018;23.670;2023-04-01T13:35:39;90223.09;;;13.83;62.13
44481;BME280;30184;42.018;23.670;2023-04-01T13:38:35;90142.53;;;13.51;63.17
44481;BME280;30184;42.018;23.670;2023-04-01T13:41:24;90174.94;;;13.74;62.11
44481;BME280;30184;42.018;23.670;2023-04-01T13:44:14;90173.88;;;13.66;64.42
44481;BME280;30184;42.018;23.670;2023-04-01T13:52:54;89906.97;;;11.45;67.48
44481;BME280;30184;42.018;23.670;2023-04-01T13:55:38;90183.09;;;13.23;68.25
44481;BME280;30184;42.018;23.670;2023-04-01T13:58:34;89838.97;;;10.78;68.58
44481;BME280;30184;42.018;23.670;2023-04-01T14:01:13;90012.25;;;11.35;69.41
44481;BME280;30184;42.018;23.670;2023-04-01T14:03:56;89705.66;;;9.66;69.29
44481;BME280;30184;42.018;23.670;2023-04-01T14:06:34;90190.72;;;12.98;70.21
44481;BME280;30184;42.018;23.670;2023-04-01T14:14:01;90309.41;;;12.90;70.79
44481;BME280;30184;42.018;23.670;2023-04-01T14:17:20;89845.97;;;10.21;71.63
44481;BME280;30184;42.018;23.670;2023-04-01T14:20:34;89980.44;;;11.91;70.78
44481;BME280;30184;42.018;23.670;2023-04-01T14:23:56;90138.06;;;13.07;70.83
44481;BME280;30184;42.018;23.670;2023-04-01T14:26:55;89758.09;;;10.13;70.53
44481;BME280;30184;42.018;23.670;2023-04-01T14:29:36;89761.66;;;10.33;71.63
44481;BME280;30184;42.018;23.670;2023-04-01T14:32:18;89706.44;;;10.01;70.59
44481;BME280;30184;42.018;23.670;2023-04-01T14:35:05;89761.47;;;10.22;70.82
44481;BME280;30184;42.018;23.670;2023-04-01T14:38:02;89842.00;;;11.21;70.81
44481;BME280;30184;42.018;23.670;2023-04-01T14:40:48;89882.47;;;11.39;71.17
44481;BME280;30184;42.018;23.670;2023-04-01T14:43:45;89928.94;;;12.02;70.76
44481;BME280;30184;42.018;23.670;2023-04-01T14:49:29;90089.28;;;13.03;70.34
44481;BME280;30184;42.018;23.670;2023-04-01T14:52:04;90071.09;;;12.08;70.75
44481;BME280;30184;42.018;23.670;2023-04-01T14:54:37;89900.34;;;11.46;71.82
44481;BME280;30184;42.018;23.670;2023-04-01T14:57:11;90257.47;;;12.74;70.07
44481;BME280;30184;42.018;23.670;2023-04-01T14:59:47;89828.56;;;10.13;70.20
44481;BME280;30184;42.018;23.670;2023-04-01T15:02:39;89714.91;;;9.89;71.62
44481;BME280;30184;42.018;23.670;2023-04-01T15:05:23;89890.00;;;10.95;72.31
44481;BME280;30184;42.018;23.670;2023-04-01T15:08:18;90159.84;;;11.62;72.94
44481;BME280;30184;42.018;23.670;2023-04-01T15:11:19;89770.84;;;9.48;75.38
44481;BME280;30184;42.018;23.670;2023-04-01T15:14:06;90003.97;;;10.36;74.76
44481;BME280;30184;42.018;23.670;2023-04-01T15:16:49;89849.84;;;7.81;78.11
44481;BME280;30184;42.018;23.670;2023-04-01T15:19:34;90235.66;;;10.59;81.63
44481;BME280;30184;42.018;23.670;2023-04-01T15:22:32;89784.38;;;7.54;81.72